AGGN/GZO METAR and TAF weather

Enter ICAO airport designator
Station Type Date Time Source
AGGN METAR UTC NOAA

Error!


Station Type Date Time Source
AGGN Decoded METAR UTC NOAA

Error!

Station Type Date Time Source
AGGN TAF 2023/01/27 18:10 UTC NOAA

TAF AGGN 271710Z 2718/2818 05010KT 9999 FEW018 BKN100

Example: see airport list